sensor_id;sensor_type;location;lat;lon;timestamp;pressure;altitude;pressure_sealevel;temperature;humidity
11830;BME280;5972;42.134;24.718;2022-10-31T00:00:07;99885.53;;;18.17;57.75
11830;BME280;5972;42.134;24.718;2022-10-31T00:02:34;99878.09;;;18.18;57.31
11830;BME280;5972;42.134;24.718;2022-10-31T00:05:01;99883.19;;;18.23;57.42
11830;BME280;5972;42.134;24.718;2022-10-31T00:07:28;99883.97;;;18.23;57.21
11830;BME280;5972;42.134;24.718;2022-10-31T00:09:55;99890.25;;;18.24;57.35
11830;BME280;5972;42.134;24.718;2022-10-31T00:12:23;99884.41;;;18.22;57.23
11830;BME280;5972;42.134;24.718;2022-10-31T00:14:50;99883.56;;;18.18;57.39
11830;BME280;5972;42.134;24.718;2022-10-31T00:17:16;99874.56;;;18.14;57.76
11830;BME280;5972;42.134;24.718;2022-10-31T00:19:43;99877.72;;;18.16;57.95
11830;BME280;5972;42.134;24.718;2022-10-31T00:22:10;99883.16;;;18.12;58.27
11830;BME280;5972;42.134;24.718;2022-10-31T00:24:37;99877.69;;;18.12;58.22
11830;BME280;5972;42.134;24.718;2022-10-31T00:27:03;99876.94;;;18.15;58.46
11830;BME280;5972;42.134;24.718;2022-10-31T00:29:31;99882.03;;;18.20;58.16
11830;BME280;5972;42.134;24.718;2022-10-31T00:31:58;99878.50;;;18.16;58.11
11830;BME280;5972;42.134;24.718;2022-10-31T00:34:25;99873.06;;;18.27;58.30
11830;BME280;5972;42.134;24.718;2022-10-31T00:36:52;99882.44;;;18.29;58.17
11830;BME280;5972;42.134;24.718;2022-10-31T00:39:18;99869.53;;;18.26;58.37
11830;BME280;5972;42.134;24.718;2022-10-31T00:41:45;99870.31;;;18.34;57.96
11830;BME280;5972;42.134;24.718;2022-10-31T00:44:12;99881.69;;;18.36;57.99
11830;BME280;5972;42.134;24.718;2022-10-31T00:46:40;99887.19;;;18.43;57.75
11830;BME280;5972;42.134;24.718;2022-10-31T00:49:07;99893.09;;;18.49;57.48
11830;BME280;5972;42.134;24.718;2022-10-31T00:51:34;99885.28;;;18.58;56.81
11830;BME280;5972;42.134;24.718;2022-10-31T00:54:00;99887.28;;;18.64;56.30
11830;BME280;5972;42.134;24.718;2022-10-31T00:56:27;99884.56;;;18.72;55.92
11830;BME280;5972;42.134;24.718;2022-10-31T00:58:54;99886.88;;;18.73;55.87
11830;BME280;5972;42.134;24.718;2022-10-31T01:01:21;99872.03;;;18.78;55.13
11830;BME280;5972;42.134;24.718;2022-10-31T01:03:49;99884.56;;;18.86;54.99
11830;BME280;5972;42.134;24.718;2022-10-31T01:06:16;99874.78;;;18.78;55.22
11830;BME280;5972;42.134;24.718;2022-10-31T01:08:43;99874.78;;;18.88;54.86
11830;BME280;5972;42.134;24.718;2022-10-31T01:11:12;99874.00;;;18.88;54.89
11830;BME280;5972;42.134;24.718;2022-10-31T01:13:39;99867.72;;;18.91;54.75
11830;BME280;5972;42.134;24.718;2022-10-31T01:16:08;99868.50;;;18.95;54.72
11830;BME280;5972;42.134;24.718;2022-10-31T01:18:36;99871.63;;;18.97;54.31
11830;BME280;5972;42.134;24.718;2022-10-31T01:21:06;99870.06;;;19.06;54.07
11830;BME280;5972;42.134;24.718;2022-10-31T01:23:34;99855.97;;;19.01;53.73
11830;BME280;5972;42.134;24.718;2022-10-31T01:26:03;99866.16;;;19.22;53.03
11830;BME280;5972;42.134;24.718;2022-10-31T01:28:30;99868.09;;;19.28;52.86
11830;BME280;5972;42.134;24.718;2022-10-31T01:31:00;99862.22;;;19.26;52.73
11830;BME280;5972;42.134;24.718;2022-10-31T01:33:27;99868.88;;;19.32;52.56
11830;BME280;5972;42.134;24.718;2022-10-31T01:35:54;99859.47;;;19.37;52.06
11830;BME280;5972;42.134;24.718;2022-10-31T01:38:22;99843.03;;;19.26;51.96
11830;BME280;5972;42.134;24.718;2022-10-31T01:40:49;99855.13;;;19.39;51.84
11830;BME280;5972;42.134;24.718;2022-10-31T01:43:17;99846.16;;;19.25;52.25
11830;BME280;5972;42.134;24.718;2022-10-31T01:45:47;99855.91;;;19.40;51.92
11830;BME280;5972;42.134;24.718;2022-10-31T01:48:20;99849.25;;;19.34;51.90
11830;BME280;5972;42.134;24.718;2022-10-31T01:50:51;99866.13;;;19.46;51.56
11830;BME280;5972;42.134;24.718;2022-10-31T01:53:18;99866.91;;;19.50;51.47
11830;BME280;5972;42.134;24.718;2022-10-31T01:55:47;99861.81;;;19.56;51.19
11830;BME280;5972;42.134;24.718;2022-10-31T01:58:16;99870.03;;;19.56;50.97
11830;BME280;5972;42.134;24.718;2022-10-31T02:00:48;99861.44;;;19.61;50.58
11830;BME280;5972;42.134;24.718;2022-10-31T02:03:16;99869.25;;;19.59;50.65
11830;BME280;5972;42.134;24.718;2022-10-31T02:05:43;99865.34;;;19.60;50.79
11830;BME280;5972;42.134;24.718;2022-10-31T02:08:14;99845.75;;;19.51;50.60
11830;BME280;5972;42.134;24.718;2022-10-31T02:10:43;99855.53;;;19.59;50.58
11830;BME280;5972;42.134;24.718;2022-10-31T02:13:12;99839.44;;;19.58;50.42
11830;BME280;5972;42.134;24.718;2022-10-31T02:15:40;99832.00;;;19.51;50.55
11830;BME280;5972;42.134;24.718;2022-10-31T02:18:07;99853.94;;;19.62;50.30
11830;BME280;5972;42.134;24.718;2022-10-31T02:20:42;99859.84;;;19.64;50.34
11830;BME280;5972;42.134;24.718;2022-10-31T02:23:43;99834.72;;;19.65;50.32
11830;BME280;5972;42.134;24.718;2022-10-31T02:26:41;99863.78;;;19.59;50.39
11830;BME280;5972;42.134;24.718;2022-10-31T02:32:13;99858.25;;;19.63;50.34
11830;BME280;5972;42.134;24.718;2022-10-31T02:34:52;99854.75;;;19.66;50.31
11830;BME280;5972;42.134;24.718;2022-10-31T02:37:26;99850.41;;;19.65;50.15
11830;BME280;5972;42.134;24.718;2022-10-31T02:39:59;99848.84;;;19.67;50.05
11830;BME280;5972;42.134;24.718;2022-10-31T02:42:35;99851.56;;;19.74;49.90
11830;BME280;5972;42.134;24.718;2022-10-31T02:45:08;99859.41;;;19.76;49.80
11830;BME280;5972;42.134;24.718;2022-10-31T02:47:41;99858.22;;;19.80;49.63
11830;BME280;5972;42.134;24.718;2022-10-31T02:50:14;99860.19;;;19.83;49.64
11830;BME280;5972;42.134;24.718;2022-10-31T02:52:43;99858.19;;;19.84;49.70
11830;BME280;5972;42.134;24.718;2022-10-31T02:55:12;99867.22;;;19.88;49.36
11830;BME280;5972;42.134;24.718;2022-10-31T02:57:40;99861.75;;;19.81;49.28
11830;BME280;5972;42.134;24.718;2022-10-31T03:00:09;99875.44;;;19.84;49.48
11830;BME280;5972;42.134;24.718;2022-10-31T03:02:55;99877.78;;;19.93;49.13
11830;BME280;5972;42.134;24.718;2022-10-31T03:05:48;99878.94;;;19.96;49.07
11830;BME280;5972;42.134;24.718;2022-10-31T03:08:23;99871.88;;;20.02;48.96
11830;BME280;5972;42.134;24.718;2022-10-31T03:10:55;99873.03;;;20.04;48.83
11830;BME280;5972;42.134;24.718;2022-10-31T03:13:31;99876.94;;;20.10;48.67
11830;BME280;5972;42.134;24.718;2022-10-31T03:16:04;99876.16;;;20.10;48.69
11830;BME280;5972;42.134;24.718;2022-10-31T03:18:38;99884.75;;;20.12;48.65
11830;BME280;5972;42.134;24.718;2022-10-31T03:21:09;99891.84;;;20.13;48.92
11830;BME280;5972;42.134;24.718;2022-10-31T03:23:40;99892.63;;;20.17;48.39
11830;BME280;5972;42.134;24.718;2022-10-31T03:26:09;99889.47;;;20.18;48.48
11830;BME280;5972;42.134;24.718;2022-10-31T03:28:43;99904.78;;;20.12;48.65
11830;BME280;5972;42.134;24.718;2022-10-31T03:31:14;99891.50;;;19.97;48.83
11830;BME280;5972;42.134;24.718;2022-10-31T03:33:44;99908.31;;;20.13;48.79
11830;BME280;5972;42.134;24.718;2022-10-31T03:36:14;99893.06;;;20.01;48.41
11830;BME280;5972;42.134;24.718;2022-10-31T03:38:43;99913.84;;;20.09;48.88
11830;BME280;5972;42.134;24.718;2022-10-31T03:41:16;99921.34;;;19.95;49.44
11830;BME280;5972;42.134;24.718;2022-10-31T03:43:49;99913.88;;;19.99;49.31
11830;BME280;5972;42.134;24.718;2022-10-31T03:46:19;99919.78;;;19.93;49.38
11830;BME280;5972;42.134;24.718;2022-10-31T03:48:47;99920.16;;;19.92;49.64
11830;BME280;5972;42.134;24.718;2022-10-31T03:51:18;99915.47;;;19.92;49.70
11830;BME280;5972;42.134;24.718;2022-10-31T03:53:50;99899.78;;;19.86;49.50
11830;BME280;5972;42.134;24.718;2022-10-31T03:56:22;99931.91;;;20.03;49.27
11830;BME280;5972;42.134;24.718;2022-10-31T03:58:57;99931.97;;;19.89;49.62
11830;BME280;5972;42.134;24.718;2022-10-31T04:01:26;99937.41;;;19.96;49.55
11830;BME280;5972;42.134;24.718;2022-10-31T04:03:57;99942.19;;;19.71;50.55
11830;BME280;5972;42.134;24.718;2022-10-31T04:06:25;99937.88;;;19.70;50.84
11830;BME280;5972;42.134;24.718;2022-10-31T04:08:55;99933.19;;;19.60;51.13
11830;BME280;5972;42.134;24.718;2022-10-31T04:11:26;99933.16;;;19.63;51.19
11830;BME280;5972;42.134;24.718;2022-10-31T04:13:54;99929.25;;;19.61;51.08
11830;BME280;5972;42.134;24.718;2022-10-31T04:16:24;99939.44;;;19.64;51.50
11830;BME280;5972;42.134;24.718;2022-10-31T04:18:52;99941.03;;;19.61;51.41
11830;BME280;5972;42.134;24.718;2022-10-31T04:21:27;99939.44;;;19.39;52.05
11830;BME280;5972;42.134;24.718;2022-10-31T04:23:54;99944.53;;;19.44;51.99
11830;BME280;5972;42.134;24.718;2022-10-31T04:26:21;99947.28;;;19.44;52.13
11830;BME280;5972;42.134;24.718;2022-10-31T04:28:48;99955.13;;;19.42;52.18
11830;BME280;5972;42.134;24.718;2022-10-31T04:31:15;99953.53;;;19.41;52.20
11830;BME280;5972;42.134;24.718;2022-10-31T04:33:42;99953.56;;;19.27;52.95
11830;BME280;5972;42.134;24.718;2022-10-31T04:36:09;99946.88;;;19.31;52.97
11830;BME280;5972;42.134;24.718;2022-10-31T04:38:37;99953.13;;;19.28;52.99
11830;BME280;5972;42.134;24.718;2022-10-31T04:41:04;99961.38;;;19.25;53.14
11830;BME280;5972;42.134;24.718;2022-10-31T04:43:31;99916.31;;;18.94;53.51
11830;BME280;5972;42.134;24.718;2022-10-31T04:45:58;99953.16;;;19.14;53.62
11830;BME280;5972;42.134;24.718;2022-10-31T04:48:25;99941.00;;;19.04;53.84
11830;BME280;5972;42.134;24.718;2022-10-31T04:50:52;99968.03;;;19.13;54.20
11830;BME280;5972;42.134;24.718;2022-10-31T04:53:19;99970.75;;;19.02;54.65
11830;BME280;5972;42.134;24.718;2022-10-31T04:55:47;99984.09;;;19.07;54.63
11830;BME280;5972;42.134;24.718;2022-10-31T04:58:13;99988.00;;;18.99;55.15
11830;BME280;5972;42.134;24.718;2022-10-31T05:00:40;99997.00;;;19.07;55.15
11830;BME280;5972;42.134;24.718;2022-10-31T05:03:07;99994.69;;;19.05;55.15
11830;BME280;5972;42.134;24.718;2022-10-31T05:05:34;99991.94;;;19.13;54.89
11830;BME280;5972;42.134;24.718;2022-10-31T05:08:01;99997.03;;;19.14;55.03
11830;BME280;5972;42.134;24.718;2022-10-31T05:10:29;99993.50;;;19.06;55.30
11830;BME280;5972;42.134;24.718;2022-10-31T05:12:59;100002.91;;;19.13;55.29
11830;BME280;5972;42.134;24.718;2022-10-31T05:15:27;100001.72;;;19.14;55.06
11830;BME280;5972;42.134;24.718;2022-10-31T05:17:54;100011.56;;;19.22;54.88
11830;BME280;5972;42.134;24.718;2022-10-31T05:20:22;100012.31;;;19.19;55.28
11830;BME280;5972;42.134;24.718;2022-10-31T05:22:51;100020.16;;;19.24;55.13
11830;BME280;5972;42.134;24.718;2022-10-31T05:25:19;100003.72;;;19.24;55.11
11830;BME280;5972;42.134;24.718;2022-10-31T05:27:48;100026.06;;;19.29;54.97
11830;BME280;5972;42.134;24.718;2022-10-31T05:30:18;100018.63;;;19.33;54.85
11830;BME280;5972;42.134;24.718;2022-10-31T05:32:47;100020.19;;;19.38;54.72
11830;BME280;5972;42.134;24.718;2022-10-31T05:35:17;100018.63;;;19.44;54.94
11830;BME280;5972;42.134;24.718;2022-10-31T05:37:43;100002.94;;;19.37;54.59
11830;BME280;5972;42.134;24.718;2022-10-31T05:40:12;100020.63;;;19.58;54.37
11830;BME280;5972;42.134;24.718;2022-10-31T05:42:39;100029.63;;;19.62;54.09
11830;BME280;5972;42.134;24.718;2022-10-31T05:45:08;100036.31;;;19.68;54.17
11830;BME280;5972;42.134;24.718;2022-10-31T05:47:36;100021.41;;;19.62;54.67
11830;BME280;5972;42.134;24.718;2022-10-31T05:50:04;100028.47;;;19.77;54.34
11830;BME280;5972;42.134;24.718;2022-10-31T05:52:31;100008.88;;;19.64;54.89
11830;BME280;5972;42.134;24.718;2022-10-31T05:54:58;100035.16;;;19.83;54.15
11830;BME280;5972;42.134;24.718;2022-10-31T05:57:25;100038.28;;;19.88;54.08
11830;BME280;5972;42.134;24.718;2022-10-31T05:59:52;100044.94;;;19.95;54.12
11830;BME280;5972;42.134;24.718;2022-10-31T06:02:19;100053.19;;;19.98;54.09
11830;BME280;5972;42.134;24.718;2022-10-31T06:04:47;100054.72;;;20.06;53.48
11830;BME280;5972;42.134;24.718;2022-10-31T06:07:14;100055.91;;;20.05;53.78
11830;BME280;5972;42.134;24.718;2022-10-31T06:09:41;100048.84;;;20.11;53.08
11830;BME280;5972;42.134;24.718;2022-10-31T06:12:08;100064.50;;;20.25;52.65
11830;BME280;5972;42.134;24.718;2022-10-31T06:14:35;100055.47;;;20.24;52.56
11830;BME280;5972;42.134;24.718;2022-10-31T06:17:02;100057.44;;;20.42;52.29
11830;BME280;5972;42.134;24.718;2022-10-31T06:19:28;100059.41;;;20.41;52.29
11830;BME280;5972;42.134;24.718;2022-10-31T06:21:57;100058.59;;;20.51;51.85
11830;BME280;5972;42.134;24.718;2022-10-31T06:24:23;100071.09;;;20.70;51.29
11830;BME280;5972;42.134;24.718;2022-10-31T06:26:50;100069.88;;;20.82;51.06
11830;BME280;5972;42.134;24.718;2022-10-31T06:29:17;100069.44;;;20.90;50.25
11830;BME280;5972;42.134;24.718;2022-10-31T06:31:44;100074.06;;;21.11;49.92
11830;BME280;5972;42.134;24.718;2022-10-31T06:34:10;100077.91;;;21.31;49.29
11830;BME280;5972;42.134;24.718;2022-10-31T06:36:37;100081.22;;;21.64;48.37
11830;BME280;5972;42.134;24.718;2022-10-31T06:39:06;100083.75;;;21.99;47.18
11830;BME280;5972;42.134;24.718;2022-10-31T06:41:32;100082.63;;;22.34;46.49
11830;BME280;5972;42.134;24.718;2022-10-31T06:43:59;100076.09;;;23.19;44.33
11830;BME280;5972;42.134;24.718;2022-10-31T06:46:26;100066.13;;;24.49;41.14
11830;BME280;5972;42.134;24.718;2022-10-31T06:48:53;100076.53;;;25.56;38.57
11830;BME280;5972;42.134;24.718;2022-10-31T06:51:19;100070.13;;;26.24;37.14
11830;BME280;5972;42.134;24.718;2022-10-31T06:53:46;100076.41;;;27.23;35.37
11830;BME280;5972;42.134;24.718;2022-10-31T06:56:14;100079.66;;;28.54;33.17
11830;BME280;5972;42.134;24.718;2022-10-31T06:58:41;100062.84;;;29.10;31.96
11830;BME280;5972;42.134;24.718;2022-10-31T07:01:08;100076.94;;;29.38;31.19
11830;BME280;5972;42.134;24.718;2022-10-31T07:03:35;100082.72;;;29.92;30.62
11830;BME280;5972;42.134;24.718;2022-10-31T07:06:02;100086.00;;;30.18;30.04
11830;BME280;5972;42.134;24.718;2022-10-31T07:08:28;100069.94;;;29.82;29.95
11830;BME280;5972;42.134;24.718;2022-10-31T07:10:56;100089.28;;;30.35;29.70
11830;BME280;5972;42.134;24.718;2022-10-31T07:13:25;100083.69;;;30.80;29.09
11830;BME280;5972;42.134;24.718;2022-10-31T07:15:52;100083.94;;;31.01;28.75
11830;BME280;5972;42.134;24.718;2022-10-31T07:18:20;100083.72;;;31.31;28.09
11830;BME280;5972;42.134;24.718;2022-10-31T07:20:47;100079.31;;;31.49;27.96
11830;BME280;5972;42.134;24.718;2022-10-31T07:23:14;100081.88;;;31.70;27.39
11830;BME280;5972;42.134;24.718;2022-10-31T07:25:41;100079.84;;;31.95;27.23
11830;BME280;5972;42.134;24.718;2022-10-31T07:28:08;100083.78;;;32.12;27.16
11830;BME280;5972;42.134;24.718;2022-10-31T07:30:37;100083.78;;;32.50;26.57
11830;BME280;5972;42.134;24.718;2022-10-31T07:33:05;100075.59;;;32.61;26.44
11830;BME280;5972;42.134;24.718;2022-10-31T07:35:32;100081.94;;;32.71;26.54
11830;BME280;5972;42.134;24.718;2022-10-31T07:38:06;100077.56;;;32.85;26.11
11830;BME280;5972;42.134;24.718;2022-10-31T07:40:33;100073.69;;;33.12;25.70
11830;BME280;5972;42.134;24.718;2022-10-31T07:43:00;100079.13;;;33.65;25.28
11830;BME280;5972;42.134;24.718;2022-10-31T07:45:27;100074.81;;;33.84;24.83
11830;BME280;5972;42.134;24.718;2022-10-31T07:47:55;100074.13;;;34.09;24.70
11830;BME280;5972;42.134;24.718;2022-10-31T07:50:24;100067.94;;;33.50;25.25
11830;BME280;5972;42.134;24.718;2022-10-31T07:52:58;100075.91;;;32.25;26.57
11830;BME280;5972;42.134;24.718;2022-10-31T07:55:25;100083.63;;;32.54;26.39
11830;BME280;5972;42.134;24.718;2022-10-31T07:57:56;100080.19;;;33.03;26.17
11830;BME280;5972;42.134;24.718;2022-10-31T08:00:23;100067.69;;;33.33;25.56
11830;BME280;5972;42.134;24.718;2022-10-31T08:02:57;100074.78;;;33.64;24.91
11830;BME280;5972;42.134;24.718;2022-10-31T08:05:24;100063.03;;;33.80;24.99
11830;BME280;5972;42.134;24.718;2022-10-31T08:07:51;100076.31;;;34.20;24.73
11830;BME280;5972;42.134;24.718;2022-10-31T08:10:18;100080.16;;;34.43;24.08
11830;BME280;5972;42.134;24.718;2022-10-31T08:12:45;100073.41;;;34.55;24.49
11830;BME280;5972;42.134;24.718;2022-10-31T08:15:12;100076.56;;;34.88;24.06
11830;BME280;5972;42.134;24.718;2022-10-31T08:17:39;100079.25;;;35.34;23.53
11830;BME280;5972;42.134;24.718;2022-10-31T08:20:08;100079.03;;;35.75;23.20
11830;BME280;5972;42.134;24.718;2022-10-31T08:22:35;100074.56;;;36.05;22.53
11830;BME280;5972;42.134;24.718;2022-10-31T08:25:02;100075.50;;;36.45;22.31
11830;BME280;5972;42.134;24.718;2022-10-31T08:27:29;100075.59;;;36.84;22.05
11830;BME280;5972;42.134;24.718;2022-10-31T08:29:56;100075.34;;;37.10;21.58
11830;BME280;5972;42.134;24.718;2022-10-31T08:32:23;100072.50;;;37.37;21.42
11830;BME280;5972;42.134;24.718;2022-10-31T08:34:50;100070.72;;;37.18;21.27
11830;BME280;5972;42.134;24.718;2022-10-31T08:37:19;100067.84;;;37.51;20.86
11830;BME280;5972;42.134;24.718;2022-10-31T08:39:45;100060.41;;;37.54;21.06
11830;BME280;5972;42.134;24.718;2022-10-31T08:42:12;100076.59;;;37.59;20.75
11830;BME280;5972;42.134;24.718;2022-10-31T08:44:39;100074.53;;;37.54;20.80
11830;BME280;5972;42.134;24.718;2022-10-31T08:47:06;100072.94;;;37.80;20.36
11830;BME280;5972;42.134;24.718;2022-10-31T08:49:33;100076.78;;;37.83;20.79
11830;BME280;5972;42.134;24.718;2022-10-31T08:52:00;100080.66;;;37.74;20.99
11830;BME280;5972;42.134;24.718;2022-10-31T08:54:28;100075.25;;;37.76;20.77
11830;BME280;5972;42.134;24.718;2022-10-31T08:56:55;100081.31;;;38.14;20.60
11830;BME280;5972;42.134;24.718;2022-10-31T08:59:22;100074.69;;;37.95;21.03
11830;BME280;5972;42.134;24.718;2022-10-31T09:01:49;100078.28;;;37.95;20.43
11830;BME280;5972;42.134;24.718;2022-10-31T09:04:16;100079.69;;;37.33;20.94
11830;BME280;5972;42.134;24.718;2022-10-31T09:06:42;100049.88;;;36.48;21.56
11830;BME280;5972;42.134;24.718;2022-10-31T09:09:09;100073.69;;;36.47;21.90
11830;BME280;5972;42.134;24.718;2022-10-31T09:11:37;100066.47;;;35.08;22.62
11830;BME280;5972;42.134;24.718;2022-10-31T09:14:04;100061.22;;;34.63;23.35
11830;BME280;5972;42.134;24.718;2022-10-31T09:16:31;100077.41;;;34.48;23.55
11830;BME280;5972;42.134;24.718;2022-10-31T09:18:58;100075.97;;;34.33;23.69
11830;BME280;5972;42.134;24.718;2022-10-31T09:21:25;100072.66;;;33.59;25.07
11830;BME280;5972;42.134;24.718;2022-10-31T09:23:51;100074.31;;;33.86;24.85
11830;BME280;5972;42.134;24.718;2022-10-31T09:26:19;100067.78;;;33.74;25.08
11830;BME280;5972;42.134;24.718;2022-10-31T09:28:47;100072.34;;;33.36;25.78
11830;BME280;5972;42.134;24.718;2022-10-31T09:31:14;100068.84;;;34.17;24.48
11830;BME280;5972;42.134;24.718;2022-10-31T09:33:41;100065.09;;;34.20;24.14
11830;BME280;5972;42.134;24.718;2022-10-31T09:36:08;100065.47;;;34.53;24.15
11830;BME280;5972;42.134;24.718;2022-10-31T09:38:35;100064.44;;;34.77;23.75
11830;BME280;5972;42.134;24.718;2022-10-31T09:41:07;100070.59;;;34.55;23.91
11830;BME280;5972;42.134;24.718;2022-10-31T09:43:47;100056.91;;;34.68;23.31
11830;BME280;5972;42.134;24.718;2022-10-31T09:46:23;100059.28;;;35.32;23.13
11830;BME280;5972;42.134;24.718;2022-10-31T09:49:07;100056.78;;;35.77;22.54
11830;BME280;5972;42.134;24.718;2022-10-31T09:51:42;100058.31;;;36.43;21.83
11830;BME280;5972;42.134;24.718;2022-10-31T09:54:13;100059.16;;;36.65;21.77
11830;BME280;5972;42.134;24.718;2022-10-31T09:56:41;100060.44;;;36.70;21.60
11830;BME280;5972;42.134;24.718;2022-10-31T09:59:13;100047.56;;;36.58;21.52
11830;BME280;5972;42.134;24.718;2022-10-31T10:01:49;100054.16;;;36.16;22.06
11830;BME280;5972;42.134;24.718;2022-10-31T10:04:30;100048.91;;;36.85;21.27
11830;BME280;5972;42.134;24.718;2022-10-31T10:07:01;100056.06;;;35.88;21.90
11830;BME280;5972;42.134;24.718;2022-10-31T10:09:29;100049.47;;;35.59;22.28
11830;BME280;5972;42.134;24.718;2022-10-31T10:12:06;100031.13;;;35.69;22.28
11830;BME280;5972;42.134;24.718;2022-10-31T10:14:44;100048.22;;;36.14;21.87
11830;BME280;5972;42.134;24.718;2022-10-31T10:17:23;100041.13;;;36.41;21.60
11830;BME280;5972;42.134;24.718;2022-10-31T10:20:11;100033.13;;;36.22;21.80
11830;BME280;5972;42.134;24.718;2022-10-31T10:22:46;99997.34;;;35.27;22.59
11830;BME280;5972;42.134;24.718;2022-10-31T10:25:19;100025.63;;;36.03;22.33
11830;BME280;5972;42.134;24.718;2022-10-31T10:27:51;100032.72;;;35.81;22.45
11830;BME280;5972;42.134;24.718;2022-10-31T10:30:22;100021.63;;;36.20;22.23
11830;BME280;5972;42.134;24.718;2022-10-31T10:32:54;100024.25;;;35.76;21.91
11830;BME280;5972;42.134;24.718;2022-10-31T10:35:24;100022.47;;;35.84;22.33
11830;BME280;5972;42.134;24.718;2022-10-31T10:37:57;100006.38;;;35.90;21.97
11830;BME280;5972;42.134;24.718;2022-10-31T10:40:27;99999.91;;;35.73;22.18
11830;BME280;5972;42.134;24.718;2022-10-31T10:43:00;99993.91;;;35.17;22.63
11830;BME280;5972;42.134;24.718;2022-10-31T10:45:52;100004.25;;;34.37;23.54
11830;BME280;5972;42.134;24.718;2022-10-31T10:48:43;99999.97;;;33.61;24.49
11830;BME280;5972;42.134;24.718;2022-10-31T10:51:30;100006.81;;;33.39;24.47
11830;BME280;5972;42.134;24.718;2022-10-31T10:56:58;99990.00;;;32.75;24.90
11830;BME280;5972;42.134;24.718;2022-10-31T10:59:27;99997.91;;;32.47;25.78
11830;BME280;5972;42.134;24.718;2022-10-31T11:01:54;99995.97;;;32.39;25.94
11830;BME280;5972;42.134;24.718;2022-10-31T11:04:29;100000.56;;;32.12;25.95
11830;BME280;5972;42.134;24.718;2022-10-31T11:06:58;99991.69;;;31.90;26.29
11830;BME280;5972;42.134;24.718;2022-10-31T11:09:25;99982.44;;;31.60;26.53
11830;BME280;5972;42.134;24.718;2022-10-31T11:11:52;99973.41;;;31.56;26.78
11830;BME280;5972;42.134;24.718;2022-10-31T11:14:20;99980.69;;;31.06;27.39
11830;BME280;5972;42.134;24.718;2022-10-31T11:16:48;99982.47;;;30.76;27.64
11830;BME280;5972;42.134;24.718;2022-10-31T11:19:17;99981.19;;;30.17;28.25
11830;BME280;5972;42.134;24.718;2022-10-31T11:21:47;99979.75;;;29.67;28.79
11830;BME280;5972;42.134;24.718;2022-10-31T11:24:17;99969.31;;;29.49;29.09
11830;BME280;5972;42.134;24.718;2022-10-31T11:26:45;99973.63;;;29.32;28.96
11830;BME280;5972;42.134;24.718;2022-10-31T11:29:15;99974.78;;;29.13;29.37
11830;BME280;5972;42.134;24.718;2022-10-31T11:31:43;99973.16;;;28.93;29.77
11830;BME280;5972;42.134;24.718;2022-10-31T11:34:17;99977.16;;;29.23;29.56
11830;BME280;5972;42.134;24.718;2022-10-31T11:36:47;99955.53;;;29.46;29.35
11830;BME280;5972;42.134;24.718;2022-10-31T11:39:18;99968.25;;;29.65;29.04
11830;BME280;5972;42.134;24.718;2022-10-31T11:41:50;99960.22;;;29.58;29.36
11830;BME280;5972;42.134;24.718;2022-10-31T11:44:25;99934.63;;;29.41;29.32
11830;BME280;5972;42.134;24.718;2022-10-31T11:46:54;99960.66;;;29.56;29.42
11830;BME280;5972;42.134;24.718;2022-10-31T11:49:27;99951.84;;;29.67;29.51
11830;BME280;5972;42.134;24.718;2022-10-31T11:51:57;99954.19;;;29.68;29.36
11830;BME280;5972;42.134;24.718;2022-10-31T11:54:27;99955.56;;;29.55;29.49
11830;BME280;5972;42.134;24.718;2022-10-31T11:56:55;99949.22;;;29.05;29.92
11830;BME280;5972;42.134;24.718;2022-10-31T11:59:25;99939.06;;;28.80;30.29
11830;BME280;5972;42.134;24.718;2022-10-31T12:01:54;99945.72;;;28.83;30.40
11830;BME280;5972;42.134;24.718;2022-10-31T12:04:42;99953.34;;;28.91;30.02
11830;BME280;5972;42.134;24.718;2022-10-31T12:07:12;99950.16;;;29.11;30.14
11830;BME280;5972;42.134;24.718;2022-10-31T12:09:40;99951.13;;;29.26;29.77
11830;BME280;5972;42.134;24.718;2022-10-31T12:18:17;99951.69;;;29.70;29.33
11830;BME280;5972;42.134;24.718;2022-10-31T12:20:57;99945.03;;;29.59;29.52
11830;BME280;5972;42.134;24.718;2022-10-31T12:23:37;99949.09;;;29.18;29.96
11830;BME280;5972;42.134;24.718;2022-10-31T12:26:16;99938.94;;;29.33;29.63
11830;BME280;5972;42.134;24.718;2022-10-31T12:28:54;99956.47;;;29.52;29.88
11830;BME280;5972;42.134;24.718;2022-10-31T12:31:32;99943.47;;;29.49;29.41
11830;BME280;5972;42.134;24.718;2022-10-31T12:34:14;99950.47;;;29.53;29.60
11830;BME280;5972;42.134;24.718;2022-10-31T12:36:54;99928.16;;;29.53;30.06
11830;BME280;5972;42.134;24.718;2022-10-31T12:39:35;99934.88;;;29.25;29.68
11830;BME280;5972;42.134;24.718;2022-10-31T12:42:15;99935.09;;;29.40;29.61
11830;BME280;5972;42.134;24.718;2022-10-31T12:44:59;99931.00;;;29.31;30.08
11830;BME280;5972;42.134;24.718;2022-10-31T12:47:41;99941.19;;;29.16;30.21
11830;BME280;5972;42.134;24.718;2022-10-31T12:50:31;99935.78;;;29.13;30.15
11830;BME280;5972;42.134;24.718;2022-10-31T12:53:13;99917.28;;;28.57;30.79
11830;BME280;5972;42.134;24.718;2022-10-31T12:55:52;99938.75;;;28.78;30.41
11830;BME280;5972;42.134;24.718;2022-10-31T12:58:24;99945.72;;;28.83;30.75
11830;BME280;5972;42.134;24.718;2022-10-31T13:01:02;99935.97;;;28.87;31.04
11830;BME280;5972;42.134;24.718;2022-10-31T13:03:38;99943.69;;;28.74;30.81
11830;BME280;5972;42.134;24.718;2022-10-31T13:06:13;99929.41;;;28.72;31.10
11830;BME280;5972;42.134;24.718;2022-10-31T13:08:47;99936.28;;;28.80;31.05
11830;BME280;5972;42.134;24.718;2022-10-31T13:11:20;99936.59;;;28.82;30.91
11830;BME280;5972;42.134;24.718;2022-10-31T13:13:55;99936.97;;;28.72;30.62
11830;BME280;5972;42.134;24.718;2022-10-31T13:16:25;99945.47;;;28.68;30.97
11830;BME280;5972;42.134;24.718;2022-10-31T13:18:57;99939.28;;;28.64;30.82
11830;BME280;5972;42.134;24.718;2022-10-31T13:21:27;99940.97;;;28.62;31.03